Time;durP1;ratioP1;P1;durP2;ratioP2;P2;SDS_P1;SDS_P2;PMS_P1;PMS_P2;Temp;Humidity;BMP_temperature;BMP_pressure;BME280_temperature;BME280_humidity;BME280_pressure;Samples;Min_cycle;Max_cycle;Signal;HPM_P1;HPM_P2
2022/10/02 00:01:49;;;;;;;;;;;;;16.00;96825.40;;;;111154;1247;41990;-61
2022/10/02 00:04:26;;;;;;;;;;;;;16.08;96824.40;;;;111119;1248;41418;-61
2022/10/02 00:06:57;;;;;;;;;;;;;16.10;96827.00;;;;111156;1247;41253;-62
2022/10/02 00:09:30;;;;;;;;;;;;;16.10;96826.80;;;;111105;1249;41287;-61
2022/10/02 00:11:59;;;;;;;;;;;;;16.10;96834.60;;;;110819;1248;42151;-61
2022/10/02 00:14:28;;;;;;;;;;;;;16.10;96839.60;;;;111075;1249;41816;-61
2022/10/02 00:16:57;;;;;;;;;;;;;16.00;96839.60;;;;110815;1248;41566;-61
2022/10/02 00:19:25;;;;;;;;;;;;;15.90;96838.20;;;;111150;1247;41184;-61
2022/10/02 00:22:12;;;;;;;;;;;;;15.90;96838.60;;;;110990;1248;41149;-61
2022/10/02 00:24:47;;;;;;;;;;;;;15.80;96838.20;;;;111012;1250;41143;-61
2022/10/02 00:27:33;;;;;;;;;;;;;15.80;96833.60;;;;111050;1247;41360;-61
2022/10/02 00:30:02;;;;;;;;;;;;;15.80;96828.20;;;;111019;1248;42432;-61
2022/10/02 00:32:38;;;;;;;;;;;;;15.80;96827.60;;;;111092;1248;42252;-61
2022/10/02 00:35:25;;;;;;;;;;;;;15.80;96821.00;;;;111101;1248;41136;-61
2022/10/02 00:37:58;;;;;;;;;;;;;15.76;96823.00;;;;111098;1247;41327;-61
2022/10/02 00:40:47;;;;;;;;;;;;;15.80;96820.00;;;;110832;1248;41206;-61
2022/10/02 00:43:26;;;;;;;;;;;;;15.74;96820.00;;;;111013;1248;41915;-61
2022/10/02 00:46:09;;;;;;;;;;;;;15.70;96813.00;;;;111036;1248;41260;-59
2022/10/02 00:48:49;;;;;;;;;;;;;15.74;96811.40;;;;111066;1249;41159;-59
2022/10/02 00:51:36;;;;;;;;;;;;;15.70;96811.80;;;;110677;1249;41165;-59
2022/10/02 00:54:04;;;;;;;;;;;;;15.66;96812.40;;;;111084;1249;41777;-59
2022/10/02 00:56:49;;;;;;;;;;;;;15.60;96820.40;;;;111037;1249;41261;-59
2022/10/02 00:59:24;;;;;;;;;;;;;15.60;96821.60;;;;110610;1251;41606;-59
2022/10/02 01:01:58;;;;;;;;;;;;;15.60;96826.40;;;;111052;1248;42003;-59
2022/10/02 01:04:30;;;;;;;;;;;;;15.60;96820.20;;;;110756;1249;41152;-60
2022/10/02 01:07:00;;;;;;;;;;;;;15.60;96818.20;;;;110876;1248;41141;-62
2022/10/02 01:09:29;;;;;;;;;;;;;15.60;96818.40;;;;111062;1247;41653;-61
2022/10/02 01:11:58;;;;;;;;;;;;;15.60;96815.40;;;;111113;1247;41423;-61
2022/10/02 01:14:30;;;;;;;;;;;;;15.60;96814.00;;;;111040;1247;41144;-61
2022/10/02 01:17:00;;;;;;;;;;;;;15.60;96815.80;;;;111101;1248;41883;-61
2022/10/02 01:19:39;;;;;;;;;;;;;15.60;96820.60;;;;111102;1247;41640;-61
2022/10/02 01:22:12;;;;;;;;;;;;;15.60;96821.00;;;;111064;1248;41182;-61
2022/10/02 01:24:53;;;;;;;;;;;;;15.60;96825.00;;;;111065;1247;42487;-61
2022/10/02 01:27:22;;;;;;;;;;;;;15.52;96824.00;;;;110956;1249;41744;-61
2022/10/02 01:29:54;;;;;;;;;;;;;15.60;96821.40;;;;110651;1250;41162;-61
2022/10/02 01:32:24;;;;;;;;;;;;;15.60;96819.80;;;;110947;1250;41153;-61
2022/10/02 01:34:53;;;;;;;;;;;;;15.58;96833.80;;;;111026;1247;42385;-62
2022/10/02 01:37:23;;;;;;;;;;;;;15.50;96839.00;;;;110765;1250;41255;-61
2022/10/02 01:39:51;;;;;;;;;;;;;15.52;96854.40;;;;111035;1249;42164;-61
2022/10/02 01:42:19;;;;;;;;;;;;;15.50;96877.20;;;;110720;1247;42348;-61
2022/10/02 01:44:47;;;;;;;;;;;;;15.50;96895.20;;;;111077;1248;41162;-62
2022/10/02 01:47:24;;;;;;;;;;;;;15.50;96900.80;;;;111063;1247;41382;-62
2022/10/02 01:50:02;;;;;;;;;;;;;15.40;96911.00;;;;111094;1247;41517;-61
2022/10/02 01:52:33;;;;;;;;;;;;;15.20;96905.20;;;;111092;1249;41130;-61
2022/10/02 01:55:03;;;;;;;;;;;;;15.10;96920.80;;;;111078;1248;41199;-61
2022/10/02 01:57:38;;;;;;;;;;;;;15.06;96920.80;;;;110822;1248;41280;-62
2022/10/02 02:00:10;;;;;;;;;;;;;14.98;96927.40;;;;111131;1247;41255;-61
2022/10/02 02:02:47;;;;;;;;;;;;;14.98;96925.00;;;;110794;1249;41921;-61
2022/10/02 02:05:27;;;;;;;;;;;;;14.90;96912.20;;;;110793;1248;42633;-61
2022/10/02 02:08:01;;;;;;;;;;;;;15.00;96904.60;;;;111130;1247;41260;-61
2022/10/02 02:10:33;;;;;;;;;;;;;15.00;96905.00;;;;111120;1247;41529;-61
2022/10/02 02:13:02;;;;;;;;;;;;;15.02;96895.80;;;;111110;1248;41880;-60
2022/10/02 02:15:36;;;;;;;;;;;;;15.00;96892.40;;;;111182;1247;42212;-61
2022/10/02 02:18:11;;;;;;;;;;;;;15.00;96896.80;;;;111109;1247;41783;-61
2022/10/02 02:20:44;;;;;;;;;;;;;15.00;96896.80;;;;111174;1247;41585;-61
2022/10/02 02:23:14;;;;;;;;;;;;;15.00;96886.20;;;;111119;1247;41673;-61
2022/10/02 02:25:44;;;;;;;;;;;;;15.10;96891.00;;;;111084;1247;41643;-61
2022/10/02 02:28:12;;;;;;;;;;;;;15.10;96887.40;;;;110927;1249;41325;-60
2022/10/02 02:30:42;;;;;;;;;;;;;15.10;96887.20;;;;111035;1247;41139;-61
2022/10/02 02:33:16;;;;;;;;;;;;;15.10;96890.40;;;;111086;1247;41172;-61
2022/10/02 02:35:46;;;;;;;;;;;;;15.04;96895.20;;;;111060;1247;41160;-61
2022/10/02 02:38:17;;;;;;;;;;;;;15.00;96893.40;;;;111102;1248;41446;-61
2022/10/02 02:40:46;;;;;;;;;;;;;15.00;96889.20;;;;111043;1248;41261;-60
2022/10/02 02:43:16;;;;;;;;;;;;;14.90;96893.00;;;;111118;1247;41681;-61
2022/10/02 02:45:50;;;;;;;;;;;;;14.90;96885.60;;;;111060;1247;41203;-61
2022/10/02 02:48:21;;;;;;;;;;;;;14.90;96883.80;;;;111022;1247;41136;-60
2022/10/02 02:50:56;;;;;;;;;;;;;14.90;96885.80;;;;111090;1247;41883;-62
2022/10/02 02:53:28;;;;;;;;;;;;;14.90;96892.20;;;;111069;1248;41263;-61
2022/10/02 02:55:57;;;;;;;;;;;;;14.80;96900.20;;;;111175;1247;42498;-61
2022/10/02 02:58:27;;;;;;;;;;;;;14.80;96901.40;;;;111093;1248;41614;-59
2022/10/02 03:00:55;;;;;;;;;;;;;14.80;96902.40;;;;111136;1247;41596;-61
2022/10/02 03:03:23;;;;;;;;;;;;;14.80;96912.60;;;;110846;1249;41637;-61
2022/10/02 03:06:10;;;;;;;;;;;;;14.80;96913.40;;;;111101;1247;41382;-60
2022/10/02 03:08:39;;;;;;;;;;;;;14.80;96909.20;;;;111060;1248;41987;-61
2022/10/02 03:11:29;;;;;;;;;;;;;14.70;96912.20;;;;111091;1249;42170;-61
2022/10/02 03:14:03;;;;;;;;;;;;;14.70;96915.60;;;;111121;1247;41153;-61
2022/10/02 03:16:43;;;;;;;;;;;;;14.56;96919.60;;;;111073;1248;42207;-61
2022/10/02 03:19:17;;;;;;;;;;;;;14.50;96928.80;;;;111066;1247;41176;-61
2022/10/02 03:21:45;;;;;;;;;;;;;14.50;96932.80;;;;110681;1249;41895;-61
2022/10/02 03:24:14;;;;;;;;;;;;;14.50;96939.00;;;;111131;1247;41144;-61
2022/10/02 03:27:05;;;;;;;;;;;;;14.50;96936.20;;;;111092;1248;41146;-59
2022/10/02 03:29:44;;;;;;;;;;;;;14.48;96946.40;;;;111018;1248;42750;-59
2022/10/02 03:32:13;;;;;;;;;;;;;14.50;96949.80;;;;111053;1247;42377;-59
2022/10/02 03:34:41;;;;;;;;;;;;;14.44;96952.60;;;;111111;1248;41140;-59
2022/10/02 03:37:10;;;;;;;;;;;;;14.40;96960.60;;;;111166;1247;41162;-58
2022/10/02 03:39:40;;;;;;;;;;;;;14.30;96955.40;;;;111131;1248;42118;-59
2022/10/02 03:42:09;;;;;;;;;;;;;14.20;96961.00;;;;111083;1248;41975;-59
2022/10/02 03:44:37;;;;;;;;;;;;;14.18;96966.00;;;;111089;1247;41135;-60
2022/10/02 03:47:05;;;;;;;;;;;;;14.20;96967.00;;;;111123;1247;41000;-60
2022/10/02 03:49:34;;;;;;;;;;;;;14.12;96963.80;;;;111086;1247;41265;-60
2022/10/02 03:52:02;;;;;;;;;;;;;14.10;96963.80;;;;111062;1246;41251;-60
2022/10/02 03:54:30;;;;;;;;;;;;;13.98;96971.00;;;;111399;1247;41200;-60
2022/10/02 03:57:02;;;;;;;;;;;;;13.90;96975.20;;;;111261;1247;40729;-60
2022/10/02 03:59:40;;;;;;;;;;;;;13.72;96975.40;;;;111125;1245;41144;-60
2022/10/02 04:02:27;;;;;;;;;;;;;13.76;96985.60;;;;110929;1248;41727;-60
2022/10/02 04:05:15;;;;;;;;;;;;;13.78;96992.20;;;;111047;1248;41243;-60
2022/10/02 04:07:42;;;;;;;;;;;;;13.70;96998.40;;;;111070;1248;41195;-61
2022/10/02 04:10:35;;;;;;;;;;;;;13.70;97004.60;;;;110716;1250;41178;-60
2022/10/02 04:13:23;;;;;;;;;;;;;13.72;97011.20;;;;111063;1248;41610;-60
2022/10/02 04:15:58;;;;;;;;;;;;;13.70;97027.40;;;;111054;1247;41260;-60
2022/10/02 04:18:30;;;;;;;;;;;;;13.76;97033.80;;;;111097;1247;41153;-59
2022/10/02 04:20:59;;;;;;;;;;;;;13.70;97037.80;;;;111197;1246;41187;-60
2022/10/02 04:23:31;;;;;;;;;;;;;13.70;97032.60;;;;111099;1247;41127;-60
2022/10/02 04:26:00;;;;;;;;;;;;;13.70;97039.00;;;;111078;1247;41257;-61
2022/10/02 04:28:31;;;;;;;;;;;;;13.60;97047.20;;;;110714;1247;41958;-61
2022/10/02 04:31:01;;;;;;;;;;;;;13.60;97046.40;;;;111113;1248;41498;-61
2022/10/02 04:33:31;;;;;;;;;;;;;13.56;97049.20;;;;111125;1247;41673;-61
2022/10/02 04:36:06;;;;;;;;;;;;;13.50;97049.60;;;;111105;1247;41296;-61
2022/10/02 04:38:43;;;;;;;;;;;;;13.40;97054.40;;;;111140;1247;41321;-61
2022/10/02 04:41:13;;;;;;;;;;;;;13.40;97052.60;;;;111141;1247;41311;-61
2022/10/02 04:44:08;;;;;;;;;;;;;13.30;97061.00;;;;111193;1247;41253;-61
2022/10/02 04:46:54;;;;;;;;;;;;;13.20;97055.60;;;;110583;1247;41633;-61
2022/10/02 04:49:35;;;;;;;;;;;;;13.20;97059.00;;;;111232;1247;41262;-59
2022/10/02 04:52:06;;;;;;;;;;;;;13.20;97065.80;;;;111141;1247;41948;-58
2022/10/02 04:54:53;;;;;;;;;;;;;13.20;97079.40;;;;111081;1248;41147;-61
2022/10/02 04:57:40;;;;;;;;;;;;;13.30;97083.80;;;;111265;1247;41152;-59
2022/10/02 05:00:18;;;;;;;;;;;;;13.30;97082.40;;;;111234;1247;41261;-58
2022/10/02 05:03:04;;;;;;;;;;;;;13.40;97081.40;;;;111359;1248;41984;-58
2022/10/02 05:05:52;;;;;;;;;;;;;13.40;97076.40;;;;111203;1248;41267;-59
2022/10/02 05:08:22;;;;;;;;;;;;;13.30;97090.40;;;;111253;1247;41331;-60
2022/10/02 05:10:58;;;;;;;;;;;;;13.40;97089.00;;;;111187;1247;41609;-60
2022/10/02 05:13:26;;;;;;;;;;;;;13.40;97097.80;;;;111179;1247;41229;-61
2022/10/02 05:16:07;;;;;;;;;;;;;13.40;97097.00;;;;111179;1247;41267;-60
2022/10/02 05:18:57;;;;;;;;;;;;;13.40;97104.20;;;;111123;1247;41611;-60
2022/10/02 05:21:31;;;;;;;;;;;;;13.40;97112.80;;;;111135;1247;41128;-60
2022/10/02 05:24:18;;;;;;;;;;;;;13.40;97118.80;;;;111173;1247;41522;-60
2022/10/02 05:26:51;;;;;;;;;;;;;13.40;97118.00;;;;110873;1247;41324;-60
2022/10/02 05:29:38;;;;;;;;;;;;;13.40;97120.40;;;;111159;1248;42018;-61
2022/10/02 05:32:36;;;;;;;;;;;;;13.30;97113.80;;;;111240;1247;41487;-61
2022/10/02 05:35:15;;;;;;;;;;;;;13.30;97122.00;;;;111148;1247;41357;-61
2022/10/02 05:37:49;;;;;;;;;;;;;13.40;97122.40;;;;110844;1247;397556;-60
2022/10/02 05:40:36;;;;;;;;;;;;;13.40;97126.20;;;;111147;1247;42372;-60
2022/10/02 05:43:25;;;;;;;;;;;;;13.44;97135.60;;;;111351;1247;42584;-60
2022/10/02 05:45:55;;;;;;;;;;;;;13.46;97138.20;;;;111223;1247;41198;-61
2022/10/02 05:48:34;;;;;;;;;;;;;13.50;97137.60;;;;111023;1249;42402;-60
2022/10/02 05:51:07;;;;;;;;;;;;;13.52;97140.60;;;;111196;1247;41275;-62
2022/10/02 05:53:36;;;;;;;;;;;;;13.68;97142.80;;;;111289;1247;42009;-64
2022/10/02 05:56:06;;;;;;;;;;;;;13.90;97147.80;;;;111097;1248;41185;-63
2022/10/02 05:58:38;;;;;;;;;;;;;14.10;97151.20;;;;111218;1247;41270;-60
2022/10/02 06:01:09;;;;;;;;;;;;;14.26;97152.20;;;;110765;1249;42123;-61
2022/10/02 06:03:40;;;;;;;;;;;;;14.38;97166.00;;;;111229;1247;41603;-61
2022/10/02 06:06:07;;;;;;;;;;;;;14.50;97168.20;;;;111162;1247;41175;-59
2022/10/02 06:08:42;;;;;;;;;;;;;14.50;97166.20;;;;111045;1247;41308;-61
2022/10/02 06:11:29;;;;;;;;;;;;;14.54;97163.20;;;;111126;1248;41231;-61
2022/10/02 06:13:59;;;;;;;;;;;;;14.72;97171.40;;;;110950;1249;42018;-59
2022/10/02 06:16:39;;;;;;;;;;;;;14.90;97171.80;;;;111111;1247;41635;-59
2022/10/02 06:19:11;;;;;;;;;;;;;14.90;97161.60;;;;111055;1248;41150;-59
2022/10/02 06:21:59;;;;;;;;;;;;;15.10;97174.60;;;;111076;1248;41124;-59
2022/10/02 06:24:28;;;;;;;;;;;;;15.20;97178.80;;;;111046;1247;42881;-59
2022/10/02 06:26:57;;;;;;;;;;;;;15.40;97177.20;;;;110682;1251;41279;-59
2022/10/02 06:29:24;;;;;;;;;;;;;15.38;97180.20;;;;111090;1247;41484;-59
2022/10/02 06:32:04;;;;;;;;;;;;;15.54;97181.80;;;;111102;1247;41130;-61
2022/10/02 06:34:31;;;;;;;;;;;;;15.60;97183.40;;;;111073;1248;41138;-61
2022/10/02 06:37:08;;;;;;;;;;;;;15.72;97186.00;;;;111075;1246;41269;-61
2022/10/02 06:39:47;;;;;;;;;;;;;15.60;97188.20;;;;111086;1247;41253;-60
2022/10/02 06:42:23;;;;;;;;;;;;;15.80;97189.60;;;;111070;1247;41148;-61
2022/10/02 06:44:50;;;;;;;;;;;;;16.00;97193.80;;;;111093;1247;42067;-61
2022/10/02 06:47:22;;;;;;;;;;;;;16.04;97200.60;;;;111074;1248;41166;-61
2022/10/02 06:49:52;;;;;;;;;;;;;15.90;97198.20;;;;111107;1248;41627;-60
2022/10/02 06:52:22;;;;;;;;;;;;;15.46;97207.60;;;;111074;1248;41142;-60
2022/10/02 06:54:52;;;;;;;;;;;;;15.50;97210.20;;;;111139;1248;41204;-61
2022/10/02 06:57:42;;;;;;;;;;;;;15.46;97210.40;;;;111069;1247;41144;-61
2022/10/02 07:00:15;;;;;;;;;;;;;15.64;97212.20;;;;111104;1247;42043;-61
2022/10/02 07:02:54;;;;;;;;;;;;;15.90;97216.60;;;;111089;1247;41259;-61
2022/10/02 07:05:34;;;;;;;;;;;;;16.00;97223.80;;;;111037;1247;41156;-61
2022/10/02 07:08:12;;;;;;;;;;;;;16.00;97230.60;;;;111019;1248;41321;-61
2022/10/02 07:10:50;;;;;;;;;;;;;16.18;97232.60;;;;111046;1247;41644;-61
2022/10/02 07:13:36;;;;;;;;;;;;;16.40;97237.60;;;;111041;1248;41802;-61
2022/10/02 07:16:22;;;;;;;;;;;;;16.78;97241.00;;;;111063;1247;41316;-61
2022/10/02 07:19:07;;;;;;;;;;;;;16.68;97239.80;;;;111040;1247;42476;-61
2022/10/02 07:21:34;;;;;;;;;;;;;17.00;97250.80;;;;111039;1248;41246;-61
2022/10/02 07:24:20;;;;;;;;;;;;;17.14;97241.80;;;;111088;1247;41608;-61
2022/10/02 07:26:57;;;;;;;;;;;;;17.40;97257.80;;;;111069;1247;41586;-61
2022/10/02 07:29:42;;;;;;;;;;;;;17.40;97248.80;;;;111117;1247;41597;-62
2022/10/02 07:32:10;;;;;;;;;;;;;17.54;97255.60;;;;111049;1248;41155;-60
2022/10/02 07:34:46;;;;;;;;;;;;;17.80;97268.20;;;;111092;1247;41378;-61
2022/10/02 07:37:13;;;;;;;;;;;;;18.00;97260.60;;;;111034;1247;42383;-61
2022/10/02 07:39:46;;;;;;;;;;;;;18.22;97267.60;;;;111051;1247;41190;-60
2022/10/02 07:42:23;;;;;;;;;;;;;18.48;97269.80;;;;110961;1249;41163;-60
2022/10/02 07:44:53;;;;;;;;;;;;;18.60;97263.80;;;;111089;1248;41273;-60
2022/10/02 07:47:32;;;;;;;;;;;;;18.76;97261.20;;;;111113;1248;41241;-60
2022/10/02 07:49:59;;;;;;;;;;;;;18.60;97255.40;;;;111073;1247;41597;-59
2022/10/02 07:52:36;;;;;;;;;;;;;18.70;97268.60;;;;111069;1247;41172;-60
2022/10/02 07:55:14;;;;;;;;;;;;;18.52;97267.00;;;;111107;1248;41521;-60
2022/10/02 07:58:00;;;;;;;;;;;;;18.10;97262.20;;;;111092;1247;42477;-60
2022/10/02 08:00:28;;;;;;;;;;;;;17.80;97271.00;;;;111074;1247;41169;-60
2022/10/02 08:02:55;;;;;;;;;;;;;17.70;97288.40;;;;111103;1247;41133;-60
2022/10/02 08:05:23;;;;;;;;;;;;;17.78;97283.60;;;;111062;1247;42538;-60
2022/10/02 08:07:52;;;;;;;;;;;;;17.86;97291.60;;;;111193;1247;41154;-60
2022/10/02 08:10:21;;;;;;;;;;;;;17.80;97288.80;;;;111129;1247;41430;-60
2022/10/02 08:12:56;;;;;;;;;;;;;17.86;97287.80;;;;111175;1247;42583;-61
2022/10/02 08:15:23;;;;;;;;;;;;;17.72;97284.40;;;;111011;1247;41136;-60
2022/10/02 08:17:52;;;;;;;;;;;;;17.92;97284.00;;;;110750;1249;41401;-60
2022/10/02 08:20:26;;;;;;;;;;;;;18.10;97280.40;;;;110969;1248;41246;-60
2022/10/02 08:23:08;;;;;;;;;;;;;18.24;97286.00;;;;111076;1248;42445;-61
2022/10/02 08:25:41;;;;;;;;;;;;;18.60;97272.20;;;;111275;1246;41172;-61
2022/10/02 08:28:22;;;;;;;;;;;;;19.16;97266.40;;;;111042;1247;41477;-60
2022/10/02 08:30:50;;;;;;;;;;;;;19.68;97264.40;;;;111040;1248;41261;-61
2022/10/02 08:33:18;;;;;;;;;;;;;20.00;97264.80;;;;111016;1249;42896;-60
2022/10/02 08:36:03;;;;;;;;;;;;;20.32;97259.00;;;;111085;1248;41453;-60
2022/10/02 08:38:51;;;;;;;;;;;;;20.00;97259.20;;;;111038;1247;41263;-61
2022/10/02 08:41:36;;;;;;;;;;;;;20.20;97262.00;;;;111090;1247;41482;-60
2022/10/02 08:44:22;;;;;;;;;;;;;20.02;97262.60;;;;111138;1247;41130;-60
2022/10/02 08:46:55;;;;;;;;;;;;;20.10;97267.00;;;;111068;1248;41776;-60
2022/10/02 08:49:25;;;;;;;;;;;;;19.84;97267.80;;;;111145;1247;41246;-61
2022/10/02 08:52:02;;;;;;;;;;;;;19.70;97271.20;;;;110986;1247;41596;-62
2022/10/02 08:54:37;;;;;;;;;;;;;19.70;97266.60;;;;111044;1248;41720;-62
2022/10/02 08:57:04;;;;;;;;;;;;;20.02;97269.20;;;;111250;1247;41138;-60
2022/10/02 08:59:51;;;;;;;;;;;;;20.26;97274.60;;;;111205;1247;43041;-61
2022/10/02 09:02:18;;;;;;;;;;;;;20.30;97276.40;;;;111182;1247;41273;-60
2022/10/02 09:04:49;;;;;;;;;;;;;20.42;97267.40;;;;111210;1247;41245;-60
2022/10/02 09:07:15;;;;;;;;;;;;;20.80;97267.40;;;;111196;1247;41400;-61
2022/10/02 09:10:01;;;;;;;;;;;;;21.48;97274.60;;;;110601;1249;41504;-61
2022/10/02 09:12:28;;;;;;;;;;;;;21.96;97268.40;;;;110966;1248;42404;-60
2022/10/02 09:15:14;;;;;;;;;;;;;22.36;97252.20;;;;111001;1247;41258;-60
2022/10/02 09:17:46;;;;;;;;;;;;;21.90;97256.60;;;;110796;1248;41177;-62
2022/10/02 09:20:25;;;;;;;;;;;;;22.30;97263.80;;;;111028;1248;41158;-60
2022/10/02 09:23:11;;;;;;;;;;;;;22.38;97261.80;;;;111041;1247;41189;-61
2022/10/02 09:25:40;;;;;;;;;;;;;22.44;97263.60;;;;111066;1248;41866;-61
2022/10/02 09:28:07;;;;;;;;;;;;;21.74;97260.00;;;;111064;1247;41822;-61
2022/10/02 09:30:46;;;;;;;;;;;;;22.16;97279.60;;;;110730;1249;41460;-60
2022/10/02 09:33:22;;;;;;;;;;;;;21.10;97279.60;;;;110990;1248;41270;-59
2022/10/02 09:36:00;;;;;;;;;;;;;21.44;97286.40;;;;110703;1249;42006;-58
2022/10/02 09:38:41;;;;;;;;;;;;;21.40;97272.80;;;;110636;1250;42288;-60
2022/10/02 09:41:09;;;;;;;;;;;;;21.50;97268.20;;;;110777;1249;41516;-61
2022/10/02 09:43:36;;;;;;;;;;;;;21.68;97273.80;;;;110689;1249;41340;-59
2022/10/02 09:46:03;;;;;;;;;;;;;21.74;97276.40;;;;110657;1249;41315;-58
2022/10/02 09:48:49;;;;;;;;;;;;;20.94;97267.20;;;;110716;1249;41581;-58
2022/10/02 09:51:38;;;;;;;;;;;;;22.16;97263.20;;;;110656;1249;41130;-60
2022/10/02 09:54:24;;;;;;;;;;;;;22.88;97259.00;;;;110980;1250;41153;-61
2022/10/02 09:57:00;;;;;;;;;;;;;23.82;97248.40;;;;110811;1250;41291;-60
2022/10/02 09:59:37;;;;;;;;;;;;;24.26;97247.20;;;;110635;1249;41532;-60
2022/10/02 10:02:23;;;;;;;;;;;;;24.80;97245.20;;;;110641;1250;41955;-60
2022/10/02 10:05:11;;;;;;;;;;;;;24.96;97240.60;;;;110658;1249;41261;-62
2022/10/02 10:07:47;;;;;;;;;;;;;25.12;97246.40;;;;110834;1249;41137;-60
2022/10/02 10:10:27;;;;;;;;;;;;;24.82;97245.60;;;;111151;1247;41152;-60
2022/10/02 10:13:16;;;;;;;;;;;;;23.82;97257.80;;;;111074;1247;41951;-59
2022/10/02 10:15:56;;;;;;;;;;;;;22.58;97250.40;;;;111103;1247;42816;-60
2022/10/02 10:18:42;;;;;;;;;;;;;23.36;97258.40;;;;110695;1248;41152;-62
2022/10/02 10:21:12;;;;;;;;;;;;;23.20;97264.80;;;;111084;1247;41164;-60
2022/10/02 10:23:58;;;;;;;;;;;;;22.20;97266.80;;;;111133;1247;41175;-60
2022/10/02 10:26:37;;;;;;;;;;;;;21.80;97274.40;;;;111129;1247;41249;-61
2022/10/02 10:29:06;;;;;;;;;;;;;21.86;97274.20;;;;111132;1247;41367;-61
2022/10/02 10:31:33;;;;;;;;;;;;;21.96;97281.80;;;;111127;1247;42351;-59
2022/10/02 10:34:22;;;;;;;;;;;;;22.00;97276.00;;;;111102;1247;41796;-60
2022/10/02 10:40:18;;;;;;;;;;;;;22.54;97270.00;;;;111099;1247;41534;-61
2022/10/02 10:43:20;;;;;;;;;;;;;23.66;97260.80;;;;111099;1247;42217;-60
2022/10/02 10:46:02;;;;;;;;;;;;;24.46;97262.00;;;;110515;1254;41249;-60
2022/10/02 10:48:48;;;;;;;;;;;;;24.72;97257.00;;;;111031;1247;42365;-58
2022/10/02 10:51:16;;;;;;;;;;;;;24.44;97246.60;;;;110990;1249;41322;-60
2022/10/02 10:53:53;;;;;;;;;;;;;25.28;97248.20;;;;111096;1247;41254;-60
2022/10/02 10:56:28;;;;;;;;;;;;;25.86;97244.60;;;;111048;1247;41136;-60
2022/10/02 10:59:03;;;;;;;;;;;;;26.42;97238.60;;;;111057;1247;41484;-60
2022/10/02 11:01:35;;;;;;;;;;;;;26.98;97223.00;;;;111070;1247;41936;-61
2022/10/02 11:04:12;;;;;;;;;;;;;28.32;97223.00;;;;111064;1247;41373;-60
2022/10/02 11:06:49;;;;;;;;;;;;;29.64;97217.80;;;;111056;1247;42538;-60
2022/10/02 11:09:16;;;;;;;;;;;;;30.40;97207.80;;;;111167;1247;41600;-60
2022/10/02 11:12:02;;;;;;;;;;;;;29.90;97204.00;;;;111073;1247;42401;-60
2022/10/02 11:15:00;;;;;;;;;;;;;30.30;97218.20;;;;111038;1247;41158;-61
2022/10/02 11:17:47;;;;;;;;;;;;;29.90;97212.60;;;;111033;1247;41903;-60
2022/10/02 11:20:33;;;;;;;;;;;;;28.84;97230.40;;;;111069;1247;41154;-60
2022/10/02 11:23:19;;;;;;;;;;;;;26.00;97228.20;;;;111060;1247;41840;-60
2022/10/02 11:26:00;;;;;;;;;;;;;25.60;97242.60;;;;111044;1247;42013;-61
2022/10/02 11:28:30;;;;;;;;;;;;;25.00;97239.60;;;;111057;1248;41204;-61
2022/10/02 11:31:06;;;;;;;;;;;;;24.40;97229.80;;;;110850;1250;41153;-61
2022/10/02 11:33:52;;;;;;;;;;;;;25.68;97222.80;;;;110605;1249;41901;-61
2022/10/02 11:36:40;;;;;;;;;;;;;26.84;97222.00;;;;110628;1250;41739;-61
2022/10/02 11:39:16;;;;;;;;;;;;;27.92;97208.60;;;;110848;1248;41626;-60
2022/10/02 11:42:12;;;;;;;;;;;;;28.64;97191.80;;;;110732;1250;41450;-61
2022/10/02 11:44:53;;;;;;;;;;;;;28.96;97195.60;;;;110767;1249;42516;-61
2022/10/02 11:47:20;;;;;;;;;;;;;28.70;97188.40;;;;111122;1248;42457;-61
2022/10/02 11:49:50;;;;;;;;;;;;;28.98;97194.60;;;;111053;1247;41239;-61
2022/10/02 11:52:24;;;;;;;;;;;;;30.10;97189.60;;;;111074;1247;41130;-61
2022/10/02 11:54:55;;;;;;;;;;;;;30.74;97185.60;;;;110794;1250;42087;-61
2022/10/02 11:57:40;;;;;;;;;;;;;30.82;97184.80;;;;111116;1247;41308;-62
2022/10/02 12:00:12;;;;;;;;;;;;;30.06;97192.20;;;;111056;1247;41147;-63
2022/10/02 12:02:42;;;;;;;;;;;;;28.96;97193.80;;;;111153;1247;42184;-61
2022/10/02 12:05:20;;;;;;;;;;;;;28.16;97193.80;;;;111192;1247;41359;-59
2022/10/02 12:07:51;;;;;;;;;;;;;27.94;97201.00;;;;111099;1248;41145;-59
2022/10/02 12:10:26;;;;;;;;;;;;;27.16;97201.00;;;;111137;1247;42180;-60
2022/10/02 12:13:14;;;;;;;;;;;;;27.84;97189.40;;;;110934;1249;41302;-60
2022/10/02 12:15:45;;;;;;;;;;;;;28.50;97199.60;;;;110809;1249;41680;-60
2022/10/02 12:18:12;;;;;;;;;;;;;28.38;97203.40;;;;111143;1247;41146;-60
2022/10/02 12:29:11;;;;;;;;;;;;;28.18;97216.40;;;;111049;1247;41246;-61
2022/10/02 12:31:57;;;;;;;;;;;;;27.82;97197.40;;;;111132;1247;41421;-61
2022/10/02 12:34:27;;;;;;;;;;;;;27.80;97217.20;;;;111252;1249;41672;-61
2022/10/02 12:37:13;;;;;;;;;;;;;27.42;97216.00;;;;111217;1247;41254;-61
2022/10/02 12:39:46;;;;;;;;;;;;;26.60;97218.80;;;;111130;1247;42388;-60
2022/10/02 12:42:19;;;;;;;;;;;;;25.96;97219.00;;;;111138;1247;41260;-60
2022/10/02 12:44:50;;;;;;;;;;;;;24.92;97219.20;;;;111216;1247;41143;-60
2022/10/02 12:47:29;;;;;;;;;;;;;24.76;97217.20;;;;111141;1247;41614;-61
2022/10/02 12:50:29;;;;;;;;;;;;;24.54;97220.20;;;;111148;1247;41257;-60
2022/10/02 12:52:56;;;;;;;;;;;;;23.84;97223.20;;;;110801;1249;41303;-60
2022/10/02 12:55:37;;;;;;;;;;;;;23.60;97223.00;;;;111239;1247;41154;-61
2022/10/02 12:58:10;;;;;;;;;;;;;23.30;97227.60;;;;111171;1247;41142;-61
2022/10/02 13:00:55;;;;;;;;;;;;;23.30;97228.80;;;;111117;1245;42093;-60
2022/10/02 13:03:31;;;;;;;;;;;;;23.18;97230.20;;;;111081;1247;41144;-61
2022/10/02 13:06:13;;;;;;;;;;;;;23.10;97226.00;;;;111231;1247;40855;-60
2022/10/02 13:09:01;;;;;;;;;;;;;22.90;97223.40;;;;111254;1247;41397;-61
2022/10/02 13:11:47;;;;;;;;;;;;;22.70;97220.40;;;;111209;1248;41272;-61
2022/10/02 13:14:19;;;;;;;;;;;;;22.60;97224.40;;;;111102;1248;41507;-60
2022/10/02 13:17:12;;;;;;;;;;;;;22.70;97217.40;;;;111241;1247;41268;-61
2022/10/02 13:19:45;;;;;;;;;;;;;22.50;97215.60;;;;110933;1247;41274;-61
2022/10/02 13:22:15;;;;;;;;;;;;;22.48;97221.20;;;;111097;1247;41255;-60
2022/10/02 13:24:59;;;;;;;;;;;;;22.50;97215.40;;;;111038;1249;41157;-60
2022/10/02 13:27:32;;;;;;;;;;;;;21.92;97210.00;;;;111067;1248;41146;-60
2022/10/02 13:30:21;;;;;;;;;;;;;21.98;97211.20;;;;111207;1248;41193;-60
2022/10/02 13:33:07;;;;;;;;;;;;;22.20;97208.20;;;;111136;1249;41641;-60
2022/10/02 13:35:37;;;;;;;;;;;;;21.70;97208.20;;;;111121;1249;41149;-59
2022/10/02 13:38:16;;;;;;;;;;;;;21.70;97202.40;;;;111189;1249;40735;-60
2022/10/02 13:41:00;;;;;;;;;;;;;21.40;97207.60;;;;110941;1247;41139;-60
2022/10/02 13:43:33;;;;;;;;;;;;;21.20;97200.40;;;;110729;1249;41725;-60
2022/10/02 13:46:04;;;;;;;;;;;;;21.02;97203.60;;;;111086;1248;41600;-60
2022/10/02 13:48:40;;;;;;;;;;;;;21.10;97195.20;;;;111033;1247;41151;-60
2022/10/02 13:51:09;;;;;;;;;;;;;21.16;97189.80;;;;111013;1248;41152;-60
2022/10/02 13:53:46;;;;;;;;;;;;;21.20;97189.60;;;;110700;1249;41174;-60
2022/10/02 13:56:16;;;;;;;;;;;;;21.40;97184.20;;;;110632;1248;41424;-60
2022/10/02 13:59:01;;;;;;;;;;;;;21.26;97191.60;;;;111207;1247;42273;-60
2022/10/02 14:01:48;;;;;;;;;;;;;21.32;97190.80;;;;110890;1249;41189;-60
2022/10/02 14:04:22;;;;;;;;;;;;;21.14;97192.80;;;;110937;1247;41178;-60
2022/10/02 14:06:51;;;;;;;;;;;;;21.20;97195.00;;;;111401;1247;42368;-60
2022/10/02 14:09:31;;;;;;;;;;;;;20.70;97194.80;;;;111235;1247;41767;-60
2022/10/02 14:12:19;;;;;;;;;;;;;19.84;97198.60;;;;111245;1247;42052;-60
2022/10/02 14:14:47;;;;;;;;;;;;;19.50;97199.80;;;;110865;1247;41757;-60
2022/10/02 14:17:33;;;;;;;;;;;;;19.26;97203.80;;;;111187;1247;41572;-60
2022/10/02 14:20:09;;;;;;;;;;;;;19.44;97199.00;;;;111214;1247;41393;-60
2022/10/02 14:22:42;;;;;;;;;;;;;19.62;97200.40;;;;111161;1248;41139;-60
2022/10/02 14:25:15;;;;;;;;;;;;;19.80;97199.00;;;;111160;1246;41266;-60
2022/10/02 14:27:56;;;;;;;;;;;;;19.60;97197.20;;;;111124;1248;42355;-60
2022/10/02 14:30:45;;;;;;;;;;;;;19.70;97191.40;;;;111088;1249;41263;-60